Filia Ariea — PIET — position and weather

sailwx.info

Track history (hours):
 
Tides and Currents Weather Stations Pressure Air Temp Water Temp Dewpoint Dewpoint Depression Visibility Wind Speed Wind Dir Waves Ship Positions

Filia Ariea

Last reported at 2015-Jan-30 15:25 UTC. Time now 2015-Jan-30 15:37 UTC.
Position N 53°57' E 007°17'.

Length 90 m; draft 4 m.

Type: Cargo ship. MMSI: 244662000.

Date/timePositionNaut miles runAvg speedWind from/ knotsBaromVisibWave heightAir tempDewpointWater temp
2015-Jan-30 15:25N 53°57' E 007°17'1011.2
2015-Jan-30 14:33N 53°60' E 007°32'1211.5
2015-Jan-30 13:33N 54°01' E 007°52'1212.1
2015-Jan-30 12:33N 54°01' E 008°12'1313.4
2015-Jan-30 11:34N 53°58' E 008°35'1312.9
2015-Jan-30 10:33N 53°51' E 008°53'1010.1
2015-Jan-30 09:34N 53°54' E 009°09'2 1.7
2015-Jan-30 08:33N 53°55' E 009°11'0 0.0
2015-Jan-30 07:34N 53°55' E 009°11'1 0.5
2015-Jan-30 06:34N 53°55' E 009°11'8 8.1
2015-Jan-30 05:33N 54°02' E 009°18'8 7.9
2015-Jan-30 04:33N 54°09' E 009°23'6 6.1
2015-Jan-30 03:33N 54°12' E 009°33'5 4.8
2015-Jan-30 02:33N 54°16' E 009°38'5 4.9
2015-Jan-30 01:33N 54°20' E 009°43'6 5.9
2015-Jan-30 00:33N 54°21' E 009°53'7 6.9
2015-Jan-29 23:33N 54°22' E 010°05'3 3.2
2015-Jan-29 22:33N 54°22' E 010°10'1110.5
2015-Jan-29 21:33N 54°31' E 010°20'2311.2
2015-Jan-29 19:33N 54°34' E 010°58'1111.1
2015-Jan-29 18:33N 54°32' E 011°17'1111.5
2015-Jan-29 17:33N 54°26' E 011°34'1212.1
2015-Jan-29 16:33N 54°19' E 011°50'1111.5
2015-Jan-29 15:34N 54°11' E 012°05'2 2.3
2015-Jan-29 14:31N 54°09' E 012°06'0 0.0
2015-Jan-29 13:31N 54°09' E 012°06'0 0.0
2015-Jan-29 12:31N 54°09' E 012°06'0 0.0
2015-Jan-29 11:30N 54°09' E 012°06'0 0.0
2015-Jan-29 10:33N 54°09' E 012°06'0 0.0
2015-Jan-29 09:32N 54°09' E 012°06'0 0.0
2015-Jan-29 08:32N 54°09' E 012°06'0 0.0
2015-Jan-29 07:31N 54°09' E 012°06'0 0.0
2015-Jan-29 06:13N 54°09' E 012°06'0 0.0
2015-Jan-29 05:31N 54°09' E 012°06'0 0.0
2015-Jan-29 04:33N 54°09' E 012°06'0 0.0
2015-Jan-29 02:32N 54°09' E 012°06'0 0.0
2015-Jan-29 01:29N 54°09' E 012°06'0 0.0
2015-Jan-29 00:25N 54°09' E 012°06'0 0.0
2015-Jan-28 21:33N 54°09' E 012°06'0 0.0
2015-Jan-28 20:30N 54°09' E 012°06'0 0.0
2015-Jan-28 19:26N 54°09' E 012°06'0 0.0
2015-Jan-28 18:26N 54°09' E 012°06'0 0.0
2015-Jan-28 17:13N 54°09' E 012°06'0 0.0
2015-Jan-28 16:31N 54°09' E 012°06'0 0.0
2015-Jan-28 15:09N 54°09' E 012°06'0 0.0
2015-Jan-28 14:24N 54°09' E 012°06'0 0.0
2015-Jan-28 13:24N 54°09' E 012°06'0 0.0
2015-Jan-28 12:14N 54°09' E 012°06'0 0.0
2015-Jan-28 11:32N 54°09' E 012°06'0 0.0
2015-Jan-28 10:31N 54°09' E 012°06'1 1.4
2015-Jan-28 09:33N 54°10' E 012°06'9 8.2
2015-Jan-28 08:31N 54°18' E 012°01'8 8.1
2015-Jan-28 07:33N 54°25' E 012°08'8 7.9
2015-Jan-28 06:33N 54°32' E 012°15'8 8.2
2015-Jan-28 05:33N 54°36' E 012°28'9 8.4
2015-Jan-28 04:29N 54°39' E 012°42'8 8.2
2015-Jan-28 03:32N 54°41' E 012°55'8 8.1
2015-Jan-28 02:34N 54°42' E 013°08'8 8.1
2015-Jan-28 01:33N 54°44' E 013°22'8 8.4
2015-Jan-28 00:33N 54°40' E 013°34'9 8.7
2015-Jan-27 23:33N 54°33' E 013°44'9 9.0
2015-Jan-27 22:33N 54°24' E 013°48'9 9.2
2015-Jan-27 21:33N 54°15' E 013°43'7 7.5
2015-Jan-27 20:33N 54°08' E 013°46'5 5.0
2015-Jan-27 19:33N 54°03' E 013°47'0 0.1
2015-Jan-27 18:27N 54°03' E 013°47'0 0.0
2015-Jan-27 17:33N 54°03' E 013°47'0 0.0
2015-Jan-27 16:32N 54°03' E 013°47'0 0.0
2015-Jan-27 15:32N 54°03' E 013°47'0 0.0
2015-Jan-27 14:28N 54°03' E 013°47'0 0.0
2015-Jan-27 13:22N 54°03' E 013°47'0 0.0
2015-Jan-27 12:15N 54°03' E 013°47'0 0.0
2015-Jan-27 11:21N 54°03' E 013°47'0 0.0
2015-Jan-27 10:18N 54°03' E 013°47'0 0.0
2015-Jan-27 09:32N 54°03' E 013°47'0 0.0
2015-Jan-27 08:29N 54°03' E 013°47'0 0.0
2015-Jan-27 07:28N 54°03' E 013°47'0 0.0
2015-Jan-27 06:31N 54°03' E 013°47'0 0.0
2015-Jan-27 05:31N 54°03' E 013°47'1 1.5
2015-Jan-27 04:33N 54°04' E 013°48'6 5.6
2015-Jan-27 03:33N 54°10' E 013°45'6 6.1
2015-Jan-27 02:33N 54°16' E 013°44'6 5.5
2015-Jan-27 01:33N 54°20' E 013°49'6 5.7
2015-Jan-27 00:33N 54°26' E 013°46'6 5.7
2015-Jan-26 23:33N 54°31' E 013°44'6 5.6
2015-Jan-26 22:33N 54°36' E 013°40'6 5.5
2015-Jan-26 21:33N 54°41' E 013°34'6 5.9
2015-Jan-26 20:33N 54°45' E 013°27'7 6.4
2015-Jan-26 19:31N 54°50' E 013°20'14 6.5
2015-Jan-26 17:22N 54°59' E 013°01'5 6.3
2015-Jan-26 16:33N 55°03' E 012°57'6 5.7
2015-Jan-26 15:33N 55°08' E 012°51'7 6.8
2015-Jan-26 14:33N 55°14' E 012°45'6 6.5
2015-Jan-26 13:33N 55°19' E 012°38'7 6.7
2015-Jan-26 12:33N 55°26' E 012°40'7 6.6
2015-Jan-26 11:33N 55°32' E 012°42'9 9.4
2015-Jan-26 10:33N 55°42' E 012°41'1110.6
2015-Jan-26 09:33N 55°52' E 012°39'1010.2
2015-Jan-26 08:33N 56°02' E 012°38'8 8.3
2015-Jan-26 07:33N 56°09' E 012°29'9 8.7
2015-Jan-26 06:33N 56°17' E 012°23'1010.2
2015-Jan-26 05:33N 56°26' E 012°15'1111.1
2015-Jan-26 04:33N 56°36' E 012°06'1211.5
2015-Jan-26 03:33N 56°46' E 011°55'1010.5
2015-Jan-26 02:33N 56°55' E 011°46'1110.9
2015-Jan-26 01:33N 57°05' E 011°36'1111.2
2015-Jan-26 00:33N 57°14' E 011°26'1111.5
2015-Jan-25 23:33N 57°24' E 011°14'1211.6
2015-Jan-25 22:33N 57°31' E 010°57'13 9.6
2015-Jan-25 21:09N 57°38' E 010°36'0 0.1
2015-Jan-25 20:23N 57°38' E 010°36'0 0.0
2015-Jan-25 19:29N 57°38' E 010°36'0 0.0
2015-Jan-25 18:31N 57°38' E 010°36'0 0.0
2015-Jan-25 17:25N 57°38' E 010°36'0 0.0
2015-Jan-25 16:30N 57°38' E 010°36'0 0.0
2015-Jan-25 15:18N 57°38' E 010°36'0 0.0
2015-Jan-25 13:29N 57°38' E 010°36'0 0.0
2015-Jan-25 12:25N 57°38' E 010°36'0 0.0
2015-Jan-25 10:10N 57°38' E 010°36'0 0.0
2015-Jan-25 09:30N 57°38' E 010°36'0 0.0
2015-Jan-25 02:06N 57°38' E 010°36'0 0.0
2015-Jan-25 01:30N 57°38' E 010°36'0 0.0
2015-Jan-24 22:20N 57°38' E 010°36'5 6.4
2015-Jan-24 21:31N 57°40' E 010°44'1010.4
2015-Jan-24 20:33N 57°50' E 010°41'1110.6
2015-Jan-24 19:29N 58°00' E 010°31'1010.1
2015-Jan-24 18:28N 58°10' E 010°24'50 7.2
2015-Jan-24 11:33N 58°50' E 009°28'3 3.2
2015-Jan-24 10:33N 58°53' E 009°25'0 0.0
2015-Jan-24 09:33N 58°53' E 009°25'0 0.0
2015-Jan-24 08:32N 58°53' E 009°25'0 0.0
2015-Jan-24 07:32N 58°53' E 009°25'0 0.0
2015-Jan-24 06:31N 58°53' E 009°25'0 0.0
2015-Jan-24 05:31N 58°53' E 009°25'0 0.0
2015-Jan-24 04:31N 58°53' E 009°25'0 0.0
2015-Jan-24 03:33N 58°53' E 009°25'0 0.0
2015-Jan-24 02:33N 58°53' E 009°25'0 0.0
2015-Jan-24 01:32N 58°53' E 009°25'0 0.0
2015-Jan-24 00:32N 58°53' E 009°25'0 0.0
2015-Jan-23 23:32N 58°53' E 009°25'36 5.9
2015-Jan-23 17:25N 59°01' E 010°33'910.3
2015-Jan-23 16:33N 59°10' E 010°37'1212.4
2015-Jan-23 15:33N 59°22' E 010°33'1212.5
2015-Jan-23 14:34N 59°34' E 010°38'1412.1
2015-Jan-23 13:24N 59°48' E 010°34'7 6.2
2015-Jan-23 12:12N 59°53' E 010°45'0 0.0
2015-Jan-22 06:33N 59°53' E 010°45'0 0.0
2015-Jan-22 05:27N 59°53' E 010°45'0 0.0
2015-Jan-22 04:32N 59°53' E 010°45'0 0.0
2015-Jan-22 03:29N 59°53' E 010°45'0 0.0
2015-Jan-22 02:22N 59°53' E 010°45'0 0.0
2015-Jan-22 01:31N 59°53' E 010°45'0 0.0
2015-Jan-22 00:22N 59°53' E 010°45'0 0.0
2015-Jan-21 23:33N 59°53' E 010°45'0 0.0
2015-Jan-21 22:45N 59°53' E 010°45'0 0.0
2015-Jan-21 22:24N 59°53' E 010°45'0 0.0
2015-Jan-21 21:32N 59°53' E 010°45'0 0.0
2015-Jan-21 20:29N 59°53' E 010°45'0 0.0
2015-Jan-21 19:19N 59°53' E 010°45'0 0.0
2015-Jan-21 18:31N 59°53' E 010°45'0 0.0
2015-Jan-21 17:25N 59°53' E 010°45'0 0.0
2015-Jan-21 16:27N 59°53' E 010°45'0 0.0
2015-Jan-21 15:32N 59°53' E 010°45'0 0.0
2015-Jan-21 14:29N 59°53' E 010°45'0 0.0
2015-Jan-21 13:22N 59°53' E 010°45'0 0.0
2015-Jan-21 12:31N 59°53' E 010°45'0 0.0
2015-Jan-21 11:25N 59°53' E 010°45'0 0.0
2015-Jan-21 10:33N 59°53' E 010°45'0 0.0
2015-Jan-21 09:24N 59°53' E 010°45'0 0.0
2015-Jan-21 08:29N 59°53' E 010°45'0 0.0
2015-Jan-21 07:29N 59°53' E 010°45'0 0.0
2015-Jan-21 05:28N 59°53' E 010°45'0 0.0
2015-Jan-21 04:25N 59°53' E 010°45'0 0.0
2015-Jan-21 03:33N 59°53' E 010°45'0 0.0
2015-Jan-21 02:24N 59°53' E 010°45'0 0.0
2015-Jan-21 01:33N 59°53' E 010°45'0 0.0
2015-Jan-21 00:26N 59°53' E 010°45'0 0.0
2015-Jan-20 23:32N 59°53' E 010°45'0 0.0
2015-Jan-20 22:28N 59°53' E 010°45'0 0.0
2015-Jan-20 21:19N 59°53' E 010°45'0 0.4
2015-Jan-20 20:33N 59°53' E 010°45'15 7.7
2015-Jan-20 18:33N 59°38' E 010°38'1010.6
2015-Jan-20 17:33N 59°28' E 010°34'1010.0
2015-Jan-20 16:33N 59°18' E 010°37'1110.0
2015-Jan-20 15:26N 59°07' E 010°36'  
Track history (hours):
 
Tides and Currents Weather Stations Pressure Air Temp Water Temp Dewpoint Dewpoint Depression Visibility Wind Speed Wind Dir Waves Ship Positions

Filia Ariea

Last reported at 2015-Jan-30 15:25 UTC. Time now 2015-Jan-30 15:37 UTC.
Position N 53°57' E 007°17'.

Length 90 m; draft 4 m.

Type: Cargo ship. MMSI: 244662000.

Date/timePositionNaut miles runAvg speedWind from/ knotsBaromVisibWave heightAir tempDewpointWater temp
2015-Jan-30 15:25N 53°57' E 007°17'1011.2
2015-Jan-30 14:33N 53°60' E 007°32'1211.5
2015-Jan-30 13:33N 54°01' E 007°52'1212.1
2015-Jan-30 12:33N 54°01' E 008°12'1313.4
2015-Jan-30 11:34N 53°58' E 008°35'1312.9
2015-Jan-30 10:33N 53°51' E 008°53'1010.1
2015-Jan-30 09:34N 53°54' E 009°09'2 1.7
2015-Jan-30 08:33N 53°55' E 009°11'0 0.0
2015-Jan-30 07:34N 53°55' E 009°11'1 0.5
2015-Jan-30 06:34N 53°55' E 009°11'8 8.1
2015-Jan-30 05:33N 54°02' E 009°18'8 7.9
2015-Jan-30 04:33N 54°09' E 009°23'6 6.1
2015-Jan-30 03:33N 54°12' E 009°33'5 4.8
2015-Jan-30 02:33N 54°16' E 009°38'5 4.9
2015-Jan-30 01:33N 54°20' E 009°43'6 5.9
2015-Jan-30 00:33N 54°21' E 009°53'7 6.9
2015-Jan-29 23:33N 54°22' E 010°05'3 3.2
2015-Jan-29 22:33N 54°22' E 010°10'1110.5
2015-Jan-29 21:33N 54°31' E 010°20'2311.2
2015-Jan-29 19:33N 54°34' E 010°58'1111.1
2015-Jan-29 18:33N 54°32' E 011°17'1111.5
2015-Jan-29 17:33N 54°26' E 011°34'1212.1
2015-Jan-29 16:33N 54°19' E 011°50'1111.5
2015-Jan-29 15:34N 54°11' E 012°05'2 2.3
2015-Jan-29 14:31N 54°09' E 012°06'0 0.0
2015-Jan-29 13:31N 54°09' E 012°06'0 0.0
2015-Jan-29 12:31N 54°09' E 012°06'0 0.0
2015-Jan-29 11:30N 54°09' E 012°06'0 0.0
2015-Jan-29 10:33N 54°09' E 012°06'0 0.0
2015-Jan-29 09:32N 54°09' E 012°06'0 0.0
2015-Jan-29 08:32N 54°09' E 012°06'0 0.0
2015-Jan-29 07:31N 54°09' E 012°06'0 0.0
2015-Jan-29 06:13N 54°09' E 012°06'0 0.0
2015-Jan-29 05:31N 54°09' E 012°06'0 0.0
2015-Jan-29 04:33N 54°09' E 012°06'0 0.0
2015-Jan-29 02:32N 54°09' E 012°06'0 0.0
2015-Jan-29 01:29N 54°09' E 012°06'0 0.0
2015-Jan-29 00:25N 54°09' E 012°06'0 0.0
2015-Jan-28 21:33N 54°09' E 012°06'0 0.0
2015-Jan-28 20:30N 54°09' E 012°06'0 0.0
2015-Jan-28 19:26N 54°09' E 012°06'0 0.0
2015-Jan-28 18:26N 54°09' E 012°06'0 0.0
2015-Jan-28 17:13N 54°09' E 012°06'0 0.0
2015-Jan-28 16:31N 54°09' E 012°06'0 0.0
2015-Jan-28 15:09N 54°09' E 012°06'0 0.0
2015-Jan-28 14:24N 54°09' E 012°06'0 0.0
2015-Jan-28 13:24N 54°09' E 012°06'0 0.0
2015-Jan-28 12:14N 54°09' E 012°06'0 0.0
2015-Jan-28 11:32N 54°09' E 012°06'0 0.0
2015-Jan-28 10:31N 54°09' E 012°06'1 1.4
2015-Jan-28 09:33N 54°10' E 012°06'9 8.2
2015-Jan-28 08:31N 54°18' E 012°01'8 8.1
2015-Jan-28 07:33N 54°25' E 012°08'8 7.9
2015-Jan-28 06:33N 54°32' E 012°15'8 8.2
2015-Jan-28 05:33N 54°36' E 012°28'9 8.4
2015-Jan-28 04:29N 54°39' E 012°42'8 8.2
2015-Jan-28 03:32N 54°41' E 012°55'8 8.1
2015-Jan-28 02:34N 54°42' E 013°08'8 8.1
2015-Jan-28 01:33N 54°44' E 013°22'8 8.4
2015-Jan-28 00:33N 54°40' E 013°34'9 8.7
2015-Jan-27 23:33N 54°33' E 013°44'9 9.0
2015-Jan-27 22:33N 54°24' E 013°48'9 9.2
2015-Jan-27 21:33N 54°15' E 013°43'7 7.5
2015-Jan-27 20:33N 54°08' E 013°46'5 5.0
2015-Jan-27 19:33N 54°03' E 013°47'0 0.1
2015-Jan-27 18:27N 54°03' E 013°47'0 0.0
2015-Jan-27 17:33N 54°03' E 013°47'0 0.0
2015-Jan-27 16:32N 54°03' E 013°47'0 0.0
2015-Jan-27 15:32N 54°03' E 013°47'0 0.0
2015-Jan-27 14:28N 54°03' E 013°47'0 0.0
2015-Jan-27 13:22N 54°03' E 013°47'0 0.0
2015-Jan-27 12:15N 54°03' E 013°47'0 0.0
2015-Jan-27 11:21N 54°03' E 013°47'0 0.0
2015-Jan-27 10:18N 54°03' E 013°47'0 0.0
2015-Jan-27 09:32N 54°03' E 013°47'0 0.0
2015-Jan-27 08:29N 54°03' E 013°47'0 0.0
2015-Jan-27 07:28N 54°03' E 013°47'0 0.0
2015-Jan-27 06:31N 54°03' E 013°47'0 0.0
2015-Jan-27 05:31N 54°03' E 013°47'1 1.5
2015-Jan-27 04:33N 54°04' E 013°48'6 5.6
2015-Jan-27 03:33N 54°10' E 013°45'6 6.1
2015-Jan-27 02:33N 54°16' E 013°44'6 5.5
2015-Jan-27 01:33N 54°20' E 013°49'6 5.7
2015-Jan-27 00:33N 54°26' E 013°46'6 5.7
2015-Jan-26 23:33N 54°31' E 013°44'6 5.6
2015-Jan-26 22:33N 54°36' E 013°40'6 5.5
2015-Jan-26 21:33N 54°41' E 013°34'6 5.9
2015-Jan-26 20:33N 54°45' E 013°27'7 6.4
2015-Jan-26 19:31N 54°50' E 013°20'14 6.5
2015-Jan-26 17:22N 54°59' E 013°01'5 6.3
2015-Jan-26 16:33N 55°03' E 012°57'6 5.7
2015-Jan-26 15:33N 55°08' E 012°51'7 6.8
2015-Jan-26 14:33N 55°14' E 012°45'6 6.5
2015-Jan-26 13:33N 55°19' E 012°38'7 6.7
2015-Jan-26 12:33N 55°26' E 012°40'7 6.6
2015-Jan-26 11:33N 55°32' E 012°42'9 9.4
2015-Jan-26 10:33N 55°42' E 012°41'1110.6
2015-Jan-26 09:33N 55°52' E 012°39'1010.2
2015-Jan-26 08:33N 56°02' E 012°38'8 8.3
2015-Jan-26 07:33N 56°09' E 012°29'9 8.7
2015-Jan-26 06:33N 56°17' E 012°23'1010.2
2015-Jan-26 05:33N 56°26' E 012°15'1111.1
2015-Jan-26 04:33N 56°36' E 012°06'1211.5
2015-Jan-26 03:33N 56°46' E 011°55'1010.5
2015-Jan-26 02:33N 56°55' E 011°46'1110.9
2015-Jan-26 01:33N 57°05' E 011°36'1111.2
2015-Jan-26 00:33N 57°14' E 011°26'1111.5
2015-Jan-25 23:33N 57°24' E 011°14'1211.6
2015-Jan-25 22:33N 57°31' E 010°57'13 9.6
2015-Jan-25 21:09N 57°38' E 010°36'0 0.1
2015-Jan-25 20:23N 57°38' E 010°36'0 0.0
2015-Jan-25 19:29N 57°38' E 010°36'0 0.0
2015-Jan-25 18:31N 57°38' E 010°36'0 0.0
2015-Jan-25 17:25N 57°38' E 010°36'0 0.0
2015-Jan-25 16:30N 57°38' E 010°36'0 0.0
2015-Jan-25 15:18N 57°38' E 010°36'0 0.0
2015-Jan-25 13:29N 57°38' E 010°36'0 0.0
2015-Jan-25 12:25N 57°38' E 010°36'0 0.0
2015-Jan-25 10:10N 57°38' E 010°36'0 0.0
2015-Jan-25 09:30N 57°38' E 010°36'0 0.0
2015-Jan-25 02:06N 57°38' E 010°36'0 0.0
2015-Jan-25 01:30N 57°38' E 010°36'0 0.0
2015-Jan-24 22:20N 57°38' E 010°36'5 6.4
2015-Jan-24 21:31N 57°40' E 010°44'1010.4
2015-Jan-24 20:33N 57°50' E 010°41'1110.6
2015-Jan-24 19:29N 58°00' E 010°31'1010.1
2015-Jan-24 18:28N 58°10' E 010°24'50 7.2
2015-Jan-24 11:33N 58°50' E 009°28'3 3.2
2015-Jan-24 10:33N 58°53' E 009°25'0 0.0
2015-Jan-24 09:33N 58°53' E 009°25'0 0.0
2015-Jan-24 08:32N 58°53' E 009°25'0 0.0
2015-Jan-24 07:32N 58°53' E 009°25'0 0.0
2015-Jan-24 06:31N 58°53' E 009°25'0 0.0
2015-Jan-24 05:31N 58°53' E 009°25'0 0.0
2015-Jan-24 04:31N 58°53' E 009°25'0 0.0
2015-Jan-24 03:33N 58°53' E 009°25'0 0.0
2015-Jan-24 02:33N 58°53' E 009°25'0 0.0
2015-Jan-24 01:32N 58°53' E 009°25'0 0.0
2015-Jan-24 00:32N 58°53' E 009°25'0 0.0
2015-Jan-23 23:32N 58°53' E 009°25'36 5.9
2015-Jan-23 17:25N 59°01' E 010°33'910.3
2015-Jan-23 16:33N 59°10' E 010°37'1212.4
2015-Jan-23 15:33N 59°22' E 010°33'1212.5
2015-Jan-23 14:34N 59°34' E 010°38'1412.1
2015-Jan-23 13:24N 59°48' E 010°34'7 6.2
2015-Jan-23 12:12N 59°53' E 010°45'0 0.0
2015-Jan-22 06:33N 59°53' E 010°45'0 0.0
2015-Jan-22 05:27N 59°53' E 010°45'0 0.0
2015-Jan-22 04:32N 59°53' E 010°45'0 0.0
2015-Jan-22 03:29N 59°53' E 010°45'0 0.0
2015-Jan-22 02:22N 59°53' E 010°45'0 0.0
2015-Jan-22 01:31N 59°53' E 010°45'0 0.0
2015-Jan-22 00:22N 59°53' E 010°45'0 0.0
2015-Jan-21 23:33N 59°53' E 010°45'0 0.0
2015-Jan-21 22:45N 59°53' E 010°45'0 0.0
2015-Jan-21 22:24N 59°53' E 010°45'0 0.0
2015-Jan-21 21:32N 59°53' E 010°45'0 0.0
2015-Jan-21 20:29N 59°53' E 010°45'0 0.0
2015-Jan-21 19:19N 59°53' E 010°45'0 0.0
2015-Jan-21 18:31N 59°53' E 010°45'0 0.0
2015-Jan-21 17:25N 59°53' E 010°45'0 0.0
2015-Jan-21 16:27N 59°53' E 010°45'0 0.0
2015-Jan-21 15:32N 59°53' E 010°45'0 0.0
2015-Jan-21 14:29N 59°53' E 010°45'0 0.0
2015-Jan-21 13:22N 59°53' E 010°45'0 0.0
2015-Jan-21 12:31N 59°53' E 010°45'0 0.0
2015-Jan-21 11:25N 59°53' E 010°45'0 0.0
2015-Jan-21 10:33N 59°53' E 010°45'0 0.0
2015-Jan-21 09:24N 59°53' E 010°45'0 0.0
2015-Jan-21 08:29N 59°53' E 010°45'0 0.0
2015-Jan-21 07:29N 59°53' E 010°45'0 0.0
2015-Jan-21 05:28N 59°53' E 010°45'0 0.0
2015-Jan-21 04:25N 59°53' E 010°45'0 0.0
2015-Jan-21 03:33N 59°53' E 010°45'0 0.0
2015-Jan-21 02:24N 59°53' E 010°45'0 0.0
2015-Jan-21 01:33N 59°53' E 010°45'0 0.0
2015-Jan-21 00:26N 59°53' E 010°45'0 0.0
2015-Jan-20 23:32N 59°53' E 010°45'0 0.0
2015-Jan-20 22:28N 59°53' E 010°45'0 0.0
2015-Jan-20 21:19N 59°53' E 010°45'0 0.4
2015-Jan-20 20:33N 59°53' E 010°45'15 7.7
2015-Jan-20 18:33N 59°38' E 010°38'1010.6
2015-Jan-20 17:33N 59°28' E 010°34'1010.0
2015-Jan-20 16:33N 59°18' E 010°37'1110.0
2015-Jan-20 15:26N 59°07' E 010°36'  

Dump ship's entire track history